sensor_id;sensor_type;location;lat;lon;timestamp;P1;durP1;ratioP1;P2;durP2;ratioP2
57667;SDS011;43499;52.366;12.912;2023-05-02T00:00:47;8.98;;;6.85;;
57667;SDS011;43499;52.366;12.912;2023-05-02T00:01:48;12.90;;;7.40;;
57667;SDS011;43499;52.366;12.912;2023-05-02T00:02:49;10.35;;;6.47;;
57667;SDS011;43499;52.366;12.912;2023-05-02T00:03:50;12.25;;;7.25;;
57667;SDS011;43499;52.366;12.912;2023-05-02T00:04:51;11.65;;;8.05;;
57667;SDS011;43499;52.366;12.912;2023-05-02T00:05:52;14.63;;;7.50;;
57667;SDS011;43499;52.366;12.912;2023-05-02T00:06:54;11.88;;;6.95;;
57667;SDS011;43499;52.366;12.912;2023-05-02T00:07:55;11.70;;;6.82;;
57667;SDS011;43499;52.366;12.912;2023-05-02T00:08:56;13.75;;;7.05;;
57667;SDS011;43499;52.366;12.912;2023-05-02T00:09:57;10.10;;;6.43;;
57667;SDS011;43499;52.366;12.912;2023-05-02T00:10:58;12.05;;;7.53;;
57667;SDS011;43499;52.366;12.912;2023-05-02T00:11:59;10.88;;;6.70;;
57667;SDS011;43499;52.366;12.912;2023-05-02T00:13:02;12.38;;;7.63;;
57667;SDS011;43499;52.366;12.912;2023-05-02T00:14:03;8.75;;;7.25;;
57667;SDS011;43499;52.366;12.912;2023-05-02T00:15:04;9.82;;;6.70;;
57667;SDS011;43499;52.366;12.912;2023-05-02T00:16:05;11.88;;;7.65;;
57667;SDS011;43499;52.366;12.912;2023-05-02T00:17:06;13.02;;;6.55;;
57667;SDS011;43499;52.366;12.912;2023-05-02T00:18:07;11.48;;;7.30;;
57667;SDS011;43499;52.366;12.912;2023-05-02T00:19:08;8.73;;;6.75;;
57667;SDS011;43499;52.366;12.912;2023-05-02T00:20:10;12.95;;;6.75;;
57667;SDS011;43499;52.366;12.912;2023-05-02T00:21:11;9.82;;;6.15;;
57667;SDS011;43499;52.366;12.912;2023-05-02T00:22:13;13.32;;;7.25;;
57667;SDS011;43499;52.366;12.912;2023-05-02T00:23:14;11.50;;;7.10;;
57667;SDS011;43499;52.366;12.912;2023-05-02T00:24:18;10.65;;;7.25;;
57667;SDS011;43499;52.366;12.912;2023-05-02T00:25:19;10.07;;;7.05;;
57667;SDS011;43499;52.366;12.912;2023-05-02T00:26:21;9.55;;;6.35;;
57667;SDS011;43499;52.366;12.912;2023-05-02T00:27:22;8.93;;;6.47;;
57667;SDS011;43499;52.366;12.912;2023-05-02T00:28:24;12.38;;;6.90;;
57667;SDS011;43499;52.366;12.912;2023-05-02T00:29:26;11.18;;;6.20;;
57667;SDS011;43499;52.366;12.912;2023-05-02T00:30:27;12.35;;;6.72;;
57667;SDS011;43499;52.366;12.912;2023-05-02T00:31:28;8.95;;;6.40;;
57667;SDS011;43499;52.366;12.912;2023-05-02T00:32:29;10.93;;;6.88;;
57667;SDS011;43499;52.366;12.912;2023-05-02T00:33:30;10.38;;;6.40;;
57667;SDS011;43499;52.366;12.912;2023-05-02T00:34:32;14.63;;;6.65;;
57667;SDS011;43499;52.366;12.912;2023-05-02T00:35:33;10.27;;;6.43;;
57667;SDS011;43499;52.366;12.912;2023-05-02T00:36:34;9.75;;;6.40;;
57667;SDS011;43499;52.366;12.912;2023-05-02T00:37:35;10.15;;;6.80;;
57667;SDS011;43499;52.366;12.912;2023-05-02T00:38:36;12.30;;;7.15;;
57667;SDS011;43499;52.366;12.912;2023-05-02T00:39:37;10.35;;;6.38;;
57667;SDS011;43499;52.366;12.912;2023-05-02T00:40:41;9.95;;;6.50;;
57667;SDS011;43499;52.366;12.912;2023-05-02T00:41:44;9.07;;;6.68;;
57667;SDS011;43499;52.366;12.912;2023-05-02T00:42:45;11.93;;;6.30;;
57667;SDS011;43499;52.366;12.912;2023-05-02T00:43:46;9.75;;;6.40;;
57667;SDS011;43499;52.366;12.912;2023-05-02T00:44:47;8.15;;;6.07;;
57667;SDS011;43499;52.366;12.912;2023-05-02T00:45:48;11.27;;;6.45;;
57667;SDS011;43499;52.366;12.912;2023-05-02T00:46:50;9.57;;;6.40;;
57667;SDS011;43499;52.366;12.912;2023-05-02T00:47:52;11.48;;;6.45;;
57667;SDS011;43499;52.366;12.912;2023-05-02T00:48:53;10.05;;;6.13;;
57667;SDS011;43499;52.366;12.912;2023-05-02T00:49:54;9.98;;;6.40;;
57667;SDS011;43499;52.366;12.912;2023-05-02T00:50:56;8.77;;;6.07;;
57667;SDS011;43499;52.366;12.912;2023-05-02T00:51:57;9.50;;;6.30;;
57667;SDS011;43499;52.366;12.912;2023-05-02T00:52:59;12.32;;;6.80;;
57667;SDS011;43499;52.366;12.912;2023-05-02T00:54:01;10.02;;;6.32;;
57667;SDS011;43499;52.366;12.912;2023-05-02T00:55:02;11.30;;;6.75;;
57667;SDS011;43499;52.366;12.912;2023-05-02T00:56:03;9.75;;;6.20;;
57667;SDS011;43499;52.366;12.912;2023-05-02T00:57:04;13.38;;;6.65;;
57667;SDS011;43499;52.366;12.912;2023-05-02T00:58:13;11.45;;;6.28;;
57667;SDS011;43499;52.366;12.912;2023-05-02T00:59:16;12.57;;;6.75;;
57667;SDS011;43499;52.366;12.912;2023-05-02T01:00:18;7.55;;;5.85;;
57667;SDS011;43499;52.366;12.912;2023-05-02T01:01:30;9.70;;;6.57;;
57667;SDS011;43499;52.366;12.912;2023-05-02T01:02:38;10.82;;;6.78;;
57667;SDS011;43499;52.366;12.912;2023-05-02T01:05:10;9.95;;;6.70;;
57667;SDS011;43499;52.366;12.912;2023-05-02T01:06:21;11.75;;;6.88;;
57667;SDS011;43499;52.366;12.912;2023-05-02T01:07:41;8.70;;;6.43;;
57667;SDS011;43499;52.366;12.912;2023-05-02T01:08:59;9.85;;;6.00;;
57667;SDS011;43499;52.366;12.912;2023-05-02T01:10:16;9.35;;;7.03;;
57667;SDS011;43499;52.366;12.912;2023-05-02T01:13:03;8.63;;;6.28;;
57667;SDS011;43499;52.366;12.912;2023-05-02T01:14:24;11.75;;;6.50;;
57667;SDS011;43499;52.366;12.912;2023-05-02T01:15:28;16.50;;;7.28;;
57667;SDS011;43499;52.366;12.912;2023-05-02T01:16:31;9.15;;;6.35;;
57667;SDS011;43499;52.366;12.912;2023-05-02T01:17:33;9.95;;;6.65;;
57667;SDS011;43499;52.366;12.912;2023-05-02T01:18:37;12.60;;;7.03;;
57667;SDS011;43499;52.366;12.912;2023-05-02T01:19:44;11.15;;;6.40;;
57667;SDS011;43499;52.366;12.912;2023-05-02T01:20:52;10.32;;;6.72;;
57667;SDS011;43499;52.366;12.912;2023-05-02T01:21:58;10.70;;;6.75;;
57667;SDS011;43499;52.366;12.912;2023-05-02T01:23:04;11.20;;;6.72;;
57667;SDS011;43499;52.366;12.912;2023-05-02T01:24:21;10.18;;;5.85;;
57667;SDS011;43499;52.366;12.912;2023-05-02T01:25:30;8.48;;;6.13;;
57667;SDS011;43499;52.366;12.912;2023-05-02T01:26:58;9.20;;;6.05;;
57667;SDS011;43499;52.366;12.912;2023-05-02T01:29:31;9.43;;;6.28;;
57667;SDS011;43499;52.366;12.912;2023-05-02T01:30:33;9.82;;;5.80;;
57667;SDS011;43499;52.366;12.912;2023-05-02T01:31:37;7.85;;;5.68;;
57667;SDS011;43499;52.366;12.912;2023-05-02T01:32:42;11.25;;;6.63;;
57667;SDS011;43499;52.366;12.912;2023-05-02T01:33:46;11.77;;;5.88;;
57667;SDS011;43499;52.366;12.912;2023-05-02T01:34:48;9.40;;;6.18;;
57667;SDS011;43499;52.366;12.912;2023-05-02T01:35:51;9.48;;;6.18;;
57667;SDS011;43499;52.366;12.912;2023-05-02T01:36:53;10.98;;;5.80;;
57667;SDS011;43499;52.366;12.912;2023-05-02T01:37:59;12.10;;;6.75;;
57667;SDS011;43499;52.366;12.912;2023-05-02T01:39:02;7.90;;;5.55;;
57667;SDS011;43499;52.366;12.912;2023-05-02T01:40:07;12.40;;;6.45;;
57667;SDS011;43499;52.366;12.912;2023-05-02T01:41:09;10.45;;;6.35;;
57667;SDS011;43499;52.366;12.912;2023-05-02T01:42:12;11.07;;;7.00;;
57667;SDS011;43499;52.366;12.912;2023-05-02T01:43:14;11.30;;;6.22;;
57667;SDS011;43499;52.366;12.912;2023-05-02T01:44:18;8.32;;;5.97;;
57667;SDS011;43499;52.366;12.912;2023-05-02T01:45:21;8.50;;;5.97;;
57667;SDS011;43499;52.366;12.912;2023-05-02T01:46:24;9.90;;;5.78;;
57667;SDS011;43499;52.366;12.912;2023-05-02T01:47:28;10.32;;;5.97;;
57667;SDS011;43499;52.366;12.912;2023-05-02T01:48:32;9.18;;;6.35;;
57667;SDS011;43499;52.366;12.912;2023-05-02T01:49:35;9.77;;;6.13;;
57667;SDS011;43499;52.366;12.912;2023-05-02T01:50:38;10.43;;;5.90;;
57667;SDS011;43499;52.366;12.912;2023-05-02T01:51:45;11.35;;;6.40;;
57667;SDS011;43499;52.366;12.912;2023-05-02T01:52:47;7.82;;;5.88;;
57667;SDS011;43499;52.366;12.912;2023-05-02T01:53:51;9.00;;;6.07;;
57667;SDS011;43499;52.366;12.912;2023-05-02T01:54:53;7.45;;;5.60;;
57667;SDS011;43499;52.366;12.912;2023-05-02T01:55:58;10.15;;;6.35;;
57667;SDS011;43499;52.366;12.912;2023-05-02T01:56:59;10.77;;;5.78;;
57667;SDS011;43499;52.366;12.912;2023-05-02T01:58:03;9.20;;;5.93;;
57667;SDS011;43499;52.366;12.912;2023-05-02T01:59:07;9.93;;;5.97;;
57667;SDS011;43499;52.366;12.912;2023-05-02T02:00:09;11.13;;;6.18;;
57667;SDS011;43499;52.366;12.912;2023-05-02T02:01:15;8.73;;;5.53;;
57667;SDS011;43499;52.366;12.912;2023-05-02T02:02:18;11.65;;;6.20;;
57667;SDS011;43499;52.366;12.912;2023-05-02T02:03:19;9.85;;;6.40;;
57667;SDS011;43499;52.366;12.912;2023-05-02T02:04:21;11.60;;;6.22;;
57667;SDS011;43499;52.366;12.912;2023-05-02T02:05:23;8.90;;;5.65;;
57667;SDS011;43499;52.366;12.912;2023-05-02T02:06:26;11.70;;;6.45;;
57667;SDS011;43499;52.366;12.912;2023-05-02T02:07:27;10.75;;;6.28;;
57667;SDS011;43499;52.366;12.912;2023-05-02T02:08:28;12.65;;;5.63;;
57667;SDS011;43499;52.366;12.912;2023-05-02T02:09:29;16.83;;;6.88;;
57667;SDS011;43499;52.366;12.912;2023-05-02T02:10:34;9.93;;;6.00;;
57667;SDS011;43499;52.366;12.912;2023-05-02T02:11:43;7.28;;;5.43;;
57667;SDS011;43499;52.366;12.912;2023-05-02T02:12:52;9.85;;;6.00;;
57667;SDS011;43499;52.366;12.912;2023-05-02T02:14:04;9.75;;;6.28;;
57667;SDS011;43499;52.366;12.912;2023-05-02T02:17:38;11.45;;;5.40;;
57667;SDS011;43499;52.366;12.912;2023-05-02T02:18:41;13.18;;;5.93;;
57667;SDS011;43499;52.366;12.912;2023-05-02T02:19:44;8.27;;;6.38;;
57667;SDS011;43499;52.366;12.912;2023-05-02T02:20:47;10.55;;;6.35;;
57667;SDS011;43499;52.366;12.912;2023-05-02T02:21:50;7.28;;;6.00;;
57667;SDS011;43499;52.366;12.912;2023-05-02T02:22:53;9.05;;;5.97;;
57667;SDS011;43499;52.366;12.912;2023-05-02T02:23:57;8.27;;;5.90;;
57667;SDS011;43499;52.366;12.912;2023-05-02T02:25:03;9.75;;;5.57;;
57667;SDS011;43499;52.366;12.912;2023-05-02T02:26:07;9.25;;;5.35;;
57667;SDS011;43499;52.366;12.912;2023-05-02T02:27:10;9.25;;;5.68;;
57667;SDS011;43499;52.366;12.912;2023-05-02T02:28:11;14.45;;;6.15;;
57667;SDS011;43499;52.366;12.912;2023-05-02T02:29:12;9.77;;;5.68;;
57667;SDS011;43499;52.366;12.912;2023-05-02T02:30:14;12.90;;;6.25;;
57667;SDS011;43499;52.366;12.912;2023-05-02T02:31:16;9.50;;;5.25;;
57667;SDS011;43499;52.366;12.912;2023-05-02T02:32:17;11.00;;;5.47;;
57667;SDS011;43499;52.366;12.912;2023-05-02T02:33:18;10.52;;;5.80;;
57667;SDS011;43499;52.366;12.912;2023-05-02T02:34:20;10.95;;;5.10;;
57667;SDS011;43499;52.366;12.912;2023-05-02T02:35:21;10.23;;;5.85;;
57667;SDS011;43499;52.366;12.912;2023-05-02T02:36:24;13.30;;;5.80;;
57667;SDS011;43499;52.366;12.912;2023-05-02T02:37:32;13.05;;;6.05;;
57667;SDS011;43499;52.366;12.912;2023-05-02T02:38:40;9.48;;;5.47;;
57667;SDS011;43499;52.366;12.912;2023-05-02T02:41:11;7.80;;;5.32;;
57667;SDS011;43499;52.366;12.912;2023-05-02T02:43:59;9.98;;;5.90;;
57667;SDS011;43499;52.366;12.912;2023-05-02T02:45:17;8.93;;;5.70;;
57667;SDS011;43499;52.366;12.912;2023-05-02T02:48:02;9.38;;;5.10;;
57667;SDS011;43499;52.366;12.912;2023-05-02T02:50:53;9.85;;;5.43;;
57667;SDS011;43499;52.366;12.912;2023-05-02T02:52:19;10.77;;;5.95;;
57667;SDS011;43499;52.366;12.912;2023-05-02T02:53:25;9.88;;;5.88;;
57667;SDS011;43499;52.366;12.912;2023-05-02T02:54:51;11.07;;;5.43;;
57667;SDS011;43499;52.366;12.912;2023-05-02T02:55:59;11.02;;;6.05;;
57667;SDS011;43499;52.366;12.912;2023-05-02T02:57:15;8.15;;;5.32;;
57667;SDS011;43499;52.366;12.912;2023-05-02T02:59:34;12.82;;;5.82;;
57667;SDS011;43499;52.366;12.912;2023-05-02T03:00:40;8.40;;;5.28;;
57667;SDS011;43499;52.366;12.912;2023-05-02T03:01:43;7.47;;;4.75;;
57667;SDS011;43499;52.366;12.912;2023-05-02T03:02:49;10.52;;;5.93;;
57667;SDS011;43499;52.366;12.912;2023-05-02T03:03:54;8.35;;;5.60;;
57667;SDS011;43499;52.366;12.912;2023-05-02T03:04:57;8.90;;;5.72;;
57667;SDS011;43499;52.366;12.912;2023-05-02T03:05:59;10.35;;;5.75;;
57667;SDS011;43499;52.366;12.912;2023-05-02T03:07:03;10.60;;;5.68;;
57667;SDS011;43499;52.366;12.912;2023-05-02T03:08:04;8.63;;;5.28;;
57667;SDS011;43499;52.366;12.912;2023-05-02T03:09:13;8.85;;;5.00;;
57667;SDS011;43499;52.366;12.912;2023-05-02T03:10:16;10.20;;;6.15;;
57667;SDS011;43499;52.366;12.912;2023-05-02T03:11:17;9.07;;;5.28;;
57667;SDS011;43499;52.366;12.912;2023-05-02T03:12:18;7.28;;;5.20;;
57667;SDS011;43499;52.366;12.912;2023-05-02T03:13:21;7.90;;;5.30;;
57667;SDS011;43499;52.366;12.912;2023-05-02T03:14:22;6.47;;;5.07;;
57667;SDS011;43499;52.366;12.912;2023-05-02T03:16:54;8.15;;;4.70;;
57667;SDS011;43499;52.366;12.912;2023-05-02T03:17:56;8.93;;;5.18;;
57667;SDS011;43499;52.366;12.912;2023-05-02T03:18:57;7.63;;;5.30;;
57667;SDS011;43499;52.366;12.912;2023-05-02T03:19:58;9.85;;;5.15;;
57667;SDS011;43499;52.366;12.912;2023-05-02T03:20:59;8.00;;;5.65;;
57667;SDS011;43499;52.366;12.912;2023-05-02T03:22:02;11.10;;;5.35;;
57667;SDS011;43499;52.366;12.912;2023-05-02T03:23:03;11.50;;;5.30;;
57667;SDS011;43499;52.366;12.912;2023-05-02T03:24:04;7.82;;;5.35;;
57667;SDS011;43499;52.366;12.912;2023-05-02T03:25:05;9.57;;;6.03;;
57667;SDS011;43499;52.366;12.912;2023-05-02T03:26:07;8.57;;;5.00;;
57667;SDS011;43499;52.366;12.912;2023-05-02T03:27:08;12.68;;;4.95;;
57667;SDS011;43499;52.366;12.912;2023-05-02T03:28:14;11.38;;;5.65;;
57667;SDS011;43499;52.366;12.912;2023-05-02T03:29:18;9.23;;;4.75;;
57667;SDS011;43499;52.366;12.912;2023-05-02T03:30:19;12.70;;;5.13;;
57667;SDS011;43499;52.366;12.912;2023-05-02T03:31:21;15.65;;;5.70;;
57667;SDS011;43499;52.366;12.912;2023-05-02T03:32:22;6.93;;;4.60;;
57667;SDS011;43499;52.366;12.912;2023-05-02T03:33:23;9.02;;;5.30;;
57667;SDS011;43499;52.366;12.912;2023-05-02T03:34:25;8.95;;;5.13;;
57667;SDS011;43499;52.366;12.912;2023-05-02T03:35:27;6.80;;;4.60;;
57667;SDS011;43499;52.366;12.912;2023-05-02T03:36:28;9.18;;;5.10;;
57667;SDS011;43499;52.366;12.912;2023-05-02T03:37:29;8.93;;;5.60;;
57667;SDS011;43499;52.366;12.912;2023-05-02T03:38:33;12.10;;;4.80;;
57667;SDS011;43499;52.366;12.912;2023-05-02T03:39:39;7.47;;;5.05;;
57667;SDS011;43499;52.366;12.912;2023-05-02T03:40:40;9.60;;;4.60;;
57667;SDS011;43499;52.366;12.912;2023-05-02T03:41:44;9.27;;;4.30;;
57667;SDS011;43499;52.366;12.912;2023-05-02T03:42:49;8.52;;;4.72;;
57667;SDS011;43499;52.366;12.912;2023-05-02T03:43:59;8.48;;;4.10;;
57667;SDS011;43499;52.366;12.912;2023-05-02T03:45:02;7.78;;;3.78;;
57667;SDS011;43499;52.366;12.912;2023-05-02T03:46:04;7.38;;;4.18;;
57667;SDS011;43499;52.366;12.912;2023-05-02T03:47:07;11.38;;;4.43;;
57667;SDS011;43499;52.366;12.912;2023-05-02T03:48:12;9.30;;;4.10;;
57667;SDS011;43499;52.366;12.912;2023-05-02T03:49:14;6.55;;;3.85;;
57667;SDS011;43499;52.366;12.912;2023-05-02T03:50:18;8.75;;;3.70;;
57667;SDS011;43499;52.366;12.912;2023-05-02T03:51:21;7.78;;;4.28;;
57667;SDS011;43499;52.366;12.912;2023-05-02T03:52:25;8.38;;;4.35;;
57667;SDS011;43499;52.366;12.912;2023-05-02T03:53:28;10.60;;;4.47;;
57667;SDS011;43499;52.366;12.912;2023-05-02T03:54:32;15.35;;;4.78;;
57667;SDS011;43499;52.366;12.912;2023-05-02T03:55:40;13.32;;;4.40;;
57667;SDS011;43499;52.366;12.912;2023-05-02T03:56:46;8.98;;;4.13;;
57667;SDS011;43499;52.366;12.912;2023-05-02T03:58:02;8.65;;;4.20;;
57667;SDS011;43499;52.366;12.912;2023-05-02T03:59:03;7.55;;;4.20;;
57667;SDS011;43499;52.366;12.912;2023-05-02T04:00:04;9.32;;;4.10;;
57667;SDS011;43499;52.366;12.912;2023-05-02T04:01:12;6.60;;;4.07;;
57667;SDS011;43499;52.366;12.912;2023-05-02T04:02:15;8.30;;;4.65;;
57667;SDS011;43499;52.366;12.912;2023-05-02T04:03:20;6.65;;;4.30;;
57667;SDS011;43499;52.366;12.912;2023-05-02T04:04:22;8.32;;;4.18;;
57667;SDS011;43499;52.366;12.912;2023-05-02T04:05:25;10.18;;;4.32;;
57667;SDS011;43499;52.366;12.912;2023-05-02T04:06:26;6.35;;;4.20;;
57667;SDS011;43499;52.366;12.912;2023-05-02T04:07:32;12.32;;;4.63;;
57667;SDS011;43499;52.366;12.912;2023-05-02T04:08:37;8.23;;;4.35;;
57667;SDS011;43499;52.366;12.912;2023-05-02T04:09:38;8.40;;;4.18;;
57667;SDS011;43499;52.366;12.912;2023-05-02T04:10:42;7.00;;;4.40;;
57667;SDS011;43499;52.366;12.912;2023-05-02T04:11:45;10.23;;;4.43;;
57667;SDS011;43499;52.366;12.912;2023-05-02T04:12:47;10.00;;;4.45;;
57667;SDS011;43499;52.366;12.912;2023-05-02T04:13:50;11.90;;;4.82;;
57667;SDS011;43499;52.366;12.912;2023-05-02T04:14:52;10.77;;;4.10;;
57667;SDS011;43499;52.366;12.912;2023-05-02T04:15:58;9.00;;;4.32;;
57667;SDS011;43499;52.366;12.912;2023-05-02T04:17:02;13.63;;;4.22;;
57667;SDS011;43499;52.366;12.912;2023-05-02T04:18:17;10.57;;;4.18;;
57667;SDS011;43499;52.366;12.912;2023-05-02T04:19:18;7.40;;;4.38;;
57667;SDS011;43499;52.366;12.912;2023-05-02T04:20:19;8.65;;;4.65;;
57667;SDS011;43499;52.366;12.912;2023-05-02T04:21:23;8.52;;;4.45;;
57667;SDS011;43499;52.366;12.912;2023-05-02T04:22:24;12.75;;;4.47;;
57667;SDS011;43499;52.366;12.912;2023-05-02T04:23:33;10.02;;;4.50;;
57667;SDS011;43499;52.366;12.912;2023-05-02T04:24:35;8.57;;;4.65;;
57667;SDS011;43499;52.366;12.912;2023-05-02T04:25:37;10.45;;;4.60;;
57667;SDS011;43499;52.366;12.912;2023-05-02T04:26:38;9.95;;;4.55;;
57667;SDS011;43499;52.366;12.912;2023-05-02T04:27:42;10.15;;;4.50;;
57667;SDS011;43499;52.366;12.912;2023-05-02T04:28:46;7.82;;;4.00;;
57667;SDS011;43499;52.366;12.912;2023-05-02T04:29:50;10.52;;;4.35;;
57667;SDS011;43499;52.366;12.912;2023-05-02T04:30:53;7.68;;;4.38;;
57667;SDS011;43499;52.366;12.912;2023-05-02T04:31:56;11.70;;;4.43;;
57667;SDS011;43499;52.366;12.912;2023-05-02T04:33:00;8.05;;;4.32;;
57667;SDS011;43499;52.366;12.912;2023-05-02T04:34:05;14.57;;;4.85;;
57667;SDS011;43499;52.366;12.912;2023-05-02T04:35:11;7.90;;;3.97;;
57667;SDS011;43499;52.366;12.912;2023-05-02T04:36:13;9.00;;;4.00;;
57667;SDS011;43499;52.366;12.912;2023-05-02T04:37:17;8.50;;;4.30;;
57667;SDS011;43499;52.366;12.912;2023-05-02T04:38:20;9.75;;;4.15;;
57667;SDS011;43499;52.366;12.912;2023-05-02T04:39:22;11.27;;;4.68;;
57667;SDS011;43499;52.366;12.912;2023-05-02T04:40:48;11.05;;;4.28;;
57667;SDS011;43499;52.366;12.912;2023-05-02T04:41:51;10.52;;;4.00;;
57667;SDS011;43499;52.366;12.912;2023-05-02T04:42:53;7.18;;;4.00;;
57667;SDS011;43499;52.366;12.912;2023-05-02T04:43:57;10.38;;;4.15;;
57667;SDS011;43499;52.366;12.912;2023-05-02T04:44:58;8.30;;;4.38;;
57667;SDS011;43499;52.366;12.912;2023-05-02T04:45:59;8.60;;;4.60;;
57667;SDS011;43499;52.366;12.912;2023-05-02T04:47:05;8.32;;;4.10;;
57667;SDS011;43499;52.366;12.912;2023-05-02T04:48:06;9.27;;;4.40;;
57667;SDS011;43499;52.366;12.912;2023-05-02T04:49:07;7.70;;;4.20;;
57667;SDS011;43499;52.366;12.912;2023-05-02T04:50:08;7.78;;;4.18;;
57667;SDS011;43499;52.366;12.912;2023-05-02T04:51:09;12.25;;;4.50;;
57667;SDS011;43499;52.366;12.912;2023-05-02T04:52:10;12.75;;;4.70;;
57667;SDS011;43499;52.366;12.912;2023-05-02T04:53:11;6.38;;;4.18;;
57667;SDS011;43499;52.366;12.912;2023-05-02T04:54:13;9.25;;;4.20;;
57667;SDS011;43499;52.366;12.912;2023-05-02T04:55:15;9.80;;;4.63;;
57667;SDS011;43499;52.366;12.912;2023-05-02T04:56:16;10.52;;;4.75;;
57667;SDS011;43499;52.366;12.912;2023-05-02T04:57:18;9.02;;;4.40;;
57667;SDS011;43499;52.366;12.912;2023-05-02T04:58:23;7.38;;;4.55;;
57667;SDS011;43499;52.366;12.912;2023-05-02T04:59:31;10.75;;;4.75;;
57667;SDS011;43499;52.366;12.912;2023-05-02T05:00:34;19.13;;;5.85;;
57667;SDS011;43499;52.366;12.912;2023-05-02T05:01:37;13.45;;;5.18;;
57667;SDS011;43499;52.366;12.912;2023-05-02T05:02:39;6.68;;;4.45;;
57667;SDS011;43499;52.366;12.912;2023-05-02T05:03:40;15.15;;;5.35;;
57667;SDS011;43499;52.366;12.912;2023-05-02T05:04:43;10.10;;;4.43;;
57667;SDS011;43499;52.366;12.912;2023-05-02T05:05:45;9.48;;;4.32;;
57667;SDS011;43499;52.366;12.912;2023-05-02T05:06:48;11.95;;;4.85;;
57667;SDS011;43499;52.366;12.912;2023-05-02T05:07:50;7.85;;;4.30;;
57667;SDS011;43499;52.366;12.912;2023-05-02T05:08:52;14.93;;;5.43;;
57667;SDS011;43499;52.366;12.912;2023-05-02T05:09:53;8.02;;;4.30;;
57667;SDS011;43499;52.366;12.912;2023-05-02T05:10:56;10.27;;;4.57;;
57667;SDS011;43499;52.366;12.912;2023-05-02T05:11:58;10.38;;;4.68;;
57667;SDS011;43499;52.366;12.912;2023-05-02T05:12:59;12.38;;;5.10;;
57667;SDS011;43499;52.366;12.912;2023-05-02T05:14:00;9.30;;;5.07;;
57667;SDS011;43499;52.366;12.912;2023-05-02T05:15:04;12.45;;;4.75;;
57667;SDS011;43499;52.366;12.912;2023-05-02T05:16:06;8.30;;;5.10;;
57667;SDS011;43499;52.366;12.912;2023-05-02T05:17:08;8.40;;;4.95;;
57667;SDS011;43499;52.366;12.912;2023-05-02T05:18:09;13.80;;;5.55;;
57667;SDS011;43499;52.366;12.912;2023-05-02T05:19:10;11.57;;;5.35;;
57667;SDS011;43499;52.366;12.912;2023-05-02T05:20:12;10.07;;;4.78;;
57667;SDS011;43499;52.366;12.912;2023-05-02T05:21:14;9.95;;;5.15;;
57667;SDS011;43499;52.366;12.912;2023-05-02T05:22:15;8.70;;;5.28;;
57667;SDS011;43499;52.366;12.912;2023-05-02T05:23:17;9.10;;;4.82;;
57667;SDS011;43499;52.366;12.912;2023-05-02T05:24:18;9.70;;;5.05;;
57667;SDS011;43499;52.366;12.912;2023-05-02T05:25:20;13.77;;;5.15;;
57667;SDS011;43499;52.366;12.912;2023-05-02T05:26:23;9.02;;;5.05;;
57667;SDS011;43499;52.366;12.912;2023-05-02T05:27:25;15.57;;;5.78;;
57667;SDS011;43499;52.366;12.912;2023-05-02T05:28:27;9.98;;;5.82;;
57667;SDS011;43499;52.366;12.912;2023-05-02T05:29:29;11.48;;;6.28;;
57667;SDS011;43499;52.366;12.912;2023-05-02T05:30:32;12.85;;;5.85;;
57667;SDS011;43499;52.366;12.912;2023-05-02T05:31:35;12.63;;;5.80;;
57667;SDS011;43499;52.366;12.912;2023-05-02T05:32:36;10.73;;;5.65;;
57667;SDS011;43499;52.366;12.912;2023-05-02T05:33:37;10.43;;;5.65;;
57667;SDS011;43499;52.366;12.912;2023-05-02T05:34:40;12.38;;;5.85;;
57667;SDS011;43499;52.366;12.912;2023-05-02T05:35:41;15.90;;;5.55;;
57667;SDS011;43499;52.366;12.912;2023-05-02T05:36:42;10.65;;;5.57;;
57667;SDS011;43499;52.366;12.912;2023-05-02T05:37:43;12.63;;;5.85;;
57667;SDS011;43499;52.366;12.912;2023-05-02T05:38:46;12.30;;;6.05;;
57667;SDS011;43499;52.366;12.912;2023-05-02T05:39:47;17.48;;;6.53;;
57667;SDS011;43499;52.366;12.912;2023-05-02T05:40:49;12.15;;;6.13;;
57667;SDS011;43499;52.366;12.912;2023-05-02T05:41:51;11.38;;;5.63;;
57667;SDS011;43499;52.366;12.912;2023-05-02T05:42:52;14.00;;;6.75;;
57667;SDS011;43499;52.366;12.912;2023-05-02T05:43:59;19.90;;;8.10;;
57667;SDS011;43499;52.366;12.912;2023-05-02T05:45:01;10.00;;;5.90;;
57667;SDS011;43499;52.366;12.912;2023-05-02T05:46:04;11.52;;;6.28;;
57667;SDS011;43499;52.366;12.912;2023-05-02T05:47:07;15.02;;;7.18;;
57667;SDS011;43499;52.366;12.912;2023-05-02T05:48:08;11.90;;;6.38;;
57667;SDS011;43499;52.366;12.912;2023-05-02T05:49:15;14.25;;;7.15;;
57667;SDS011;43499;52.366;12.912;2023-05-02T05:50:17;12.65;;;6.10;;
57667;SDS011;43499;52.366;12.912;2023-05-02T05:51:19;18.65;;;7.35;;
57667;SDS011;43499;52.366;12.912;2023-05-02T05:52:21;11.38;;;6.03;;
57667;SDS011;43499;52.366;12.912;2023-05-02T05:53:22;20.50;;;7.65;;
57667;SDS011;43499;52.366;12.912;2023-05-02T05:54:23;11.52;;;6.68;;
57667;SDS011;43499;52.366;12.912;2023-05-02T05:55:26;16.27;;;6.25;;
57667;SDS011;43499;52.366;12.912;2023-05-02T05:56:27;13.40;;;6.90;;
57667;SDS011;43499;52.366;12.912;2023-05-02T05:57:35;13.45;;;6.60;;
57667;SDS011;43499;52.366;12.912;2023-05-02T05:58:36;17.35;;;7.25;;
57667;SDS011;43499;52.366;12.912;2023-05-02T05:59:38;13.57;;;7.88;;
57667;SDS011;43499;52.366;12.912;2023-05-02T06:00:41;15.45;;;7.22;;
57667;SDS011;43499;52.366;12.912;2023-05-02T06:01:42;12.82;;;7.07;;
57667;SDS011;43499;52.366;12.912;2023-05-02T06:02:43;14.68;;;6.78;;
57667;SDS011;43499;52.366;12.912;2023-05-02T06:03:53;12.75;;;7.22;;
57667;SDS011;43499;52.366;12.912;2023-05-02T06:04:54;13.80;;;6.32;;
57667;SDS011;43499;52.366;12.912;2023-05-02T06:05:57;15.98;;;6.28;;
57667;SDS011;43499;52.366;12.912;2023-05-02T06:06:59;16.42;;;7.03;;
57667;SDS011;43499;52.366;12.912;2023-05-02T06:08:00;16.75;;;7.30;;
57667;SDS011;43499;52.366;12.912;2023-05-02T06:09:01;16.77;;;6.82;;
57667;SDS011;43499;52.366;12.912;2023-05-02T06:10:04;16.83;;;7.32;;
57667;SDS011;43499;52.366;12.912;2023-05-02T06:11:08;15.35;;;6.90;;
57667;SDS011;43499;52.366;12.912;2023-05-02T06:12:13;16.95;;;7.35;;
57667;SDS011;43499;52.366;12.912;2023-05-02T06:13:16;14.60;;;6.43;;
57667;SDS011;43499;52.366;12.912;2023-05-02T06:14:18;15.70;;;7.13;;
57667;SDS011;43499;52.366;12.912;2023-05-02T06:15:22;14.38;;;7.35;;
57667;SDS011;43499;52.366;12.912;2023-05-02T06:16:23;20.50;;;10.32;;
57667;SDS011;43499;52.366;12.912;2023-05-02T06:17:25;17.50;;;7.45;;
57667;SDS011;43499;52.366;12.912;2023-05-02T06:18:26;13.65;;;7.60;;
57667;SDS011;43499;52.366;12.912;2023-05-02T06:19:27;15.77;;;7.75;;
57667;SDS011;43499;52.366;12.912;2023-05-02T06:20:28;13.18;;;7.28;;
57667;SDS011;43499;52.366;12.912;2023-05-02T06:21:29;12.88;;;6.80;;
57667;SDS011;43499;52.366;12.912;2023-05-02T06:22:31;14.02;;;7.40;;
57667;SDS011;43499;52.366;12.912;2023-05-02T06:23:32;16.88;;;7.57;;
57667;SDS011;43499;52.366;12.912;2023-05-02T06:24:33;10.68;;;6.75;;
57667;SDS011;43499;52.366;12.912;2023-05-02T06:25:37;20.10;;;7.68;;
57667;SDS011;43499;52.366;12.912;2023-05-02T06:26:38;14.25;;;8.32;;
57667;SDS011;43499;52.366;12.912;2023-05-02T06:27:39;15.68;;;6.95;;
57667;SDS011;43499;52.366;12.912;2023-05-02T06:28:40;13.15;;;7.03;;
57667;SDS011;43499;52.366;12.912;2023-05-02T06:29:41;17.10;;;7.45;;
57667;SDS011;43499;52.366;12.912;2023-05-02T06:30:42;16.30;;;7.38;;